createdAt,value
2023-05-19T00:05:24.418Z,82.4
2023-05-19T00:10:24.345Z,83.3
2023-05-19T00:15:24.362Z,83.3
2023-05-19T00:20:34.737Z,83.6
2023-05-19T00:25:34.623Z,83.3
2023-05-19T00:31:24.625Z,84.1
2023-05-19T00:36:34.622Z,86
2023-05-19T00:41:34.644Z,83.5
2023-05-19T00:47:24.356Z,84
2023-05-19T00:52:24.476Z,84.9
2023-05-19T00:57:34.655Z,86.6
2023-05-19T01:02:34.735Z,86.6
2023-05-19T01:08:24.336Z,87.7
2023-05-19T01:13:24.364Z,87.2
2023-05-19T01:18:34.632Z,87.1
2023-05-19T01:23:34.630Z,88.9
2023-05-19T01:28:34.638Z,88.6
2023-05-19T01:33:34.670Z,89.4
2023-05-19T01:38:34.648Z,91.5
2023-05-19T01:44:24.357Z,91.9
2023-05-19T01:49:24.373Z,91.6
2023-05-19T01:54:34.629Z,95.3
2023-05-19T02:00:24.348Z,97.9
2023-05-19T02:05:34.637Z,99.4
2023-05-19T02:11:24.374Z,100
2023-05-19T02:16:24.505Z,100
2023-05-19T02:21:34.642Z,100
2023-05-19T02:27:24.355Z,100
2023-05-19T02:32:24.366Z,100
2023-05-19T02:37:34.605Z,100
2023-05-19T02:42:34.650Z,100
2023-05-19T02:47:36.901Z,100
2023-05-19T02:53:24.393Z,100
2023-05-19T02:58:34.609Z,100
2023-05-19T03:03:34.705Z,100
2023-05-19T03:08:34.630Z,100
2023-05-19T03:13:34.669Z,100
2023-05-19T03:19:24.413Z,100
2023-05-19T03:24:34.615Z,100
2023-05-19T03:29:34.639Z,100
2023-05-19T03:34:34.648Z,100
2023-05-19T03:39:34.662Z,100
2023-05-19T03:45:24.352Z,100
2023-05-19T03:50:24.458Z,100
2023-05-19T03:55:34.626Z,100
2023-05-19T04:00:34.900Z,100
2023-05-19T04:11:24.350Z,100
2023-05-19T04:16:34.659Z,100
2023-05-19T04:22:24.375Z,100
2023-05-19T04:27:34.648Z,100
2023-05-19T04:33:24.367Z,100
2023-05-19T04:38:24.371Z,100
2023-05-19T04:43:24.382Z,100
2023-05-19T04:48:34.641Z,100
2023-05-19T04:54:24.477Z,100
2023-05-19T04:59:34.651Z,99.7
2023-05-19T05:05:24.370Z,99.6
2023-05-19T05:10:24.365Z,95.7
2023-05-19T05:15:34.665Z,90.9
2023-05-19T05:21:24.350Z,87
2023-05-19T05:26:24.365Z,82.9
2023-05-19T05:31:34.610Z,72.7
2023-05-19T05:36:34.654Z,72.3
2023-05-19T05:41:34.710Z,66.7
2023-05-19T05:47:24.349Z,64.7
2023-05-19T05:52:24.365Z,60.6
2023-05-19T05:57:34.653Z,59
2023-05-19T06:03:24.658Z,55.6
2023-05-19T06:08:34.671Z,53.4
2023-05-19T06:13:34.674Z,54.3
2023-05-19T06:19:24.442Z,53.6
2023-05-19T06:24:34.669Z,48.3
2023-05-19T06:30:24.385Z,47.8
2023-05-19T06:35:34.658Z,46.8
2023-05-19T06:40:34.871Z,44.4
2023-05-19T06:46:24.470Z,41.7
2023-05-19T06:51:34.671Z,40.1
2023-05-19T06:56:34.662Z,39.6
2023-05-19T07:02:24.404Z,38.7
2023-05-19T07:07:34.648Z,39.5
2023-05-19T07:13:25.956Z,37.5
2023-05-19T07:18:24.401Z,38.1
2023-05-19T07:23:24.408Z,35.5
2023-05-19T07:28:34.657Z,35.8
2023-05-19T07:33:34.695Z,35.3
2023-05-19T07:39:24.555Z,34.2
2023-05-19T07:44:24.386Z,34.3
2023-05-19T07:49:34.661Z,32.4
2023-05-19T07:54:34.676Z,32
2023-05-19T07:59:34.710Z,32.4
2023-05-19T08:05:24.746Z,30.9
2023-05-19T08:10:34.954Z,31.6
2023-05-19T08:15:34.798Z,31.8
2023-05-19T08:20:34.989Z,29.7
2023-05-19T08:26:24.425Z,30.2
2023-05-19T08:31:34.794Z,28.8
2023-05-19T08:36:34.700Z,29.3
2023-05-19T08:41:34.749Z,29.8
2023-05-19T08:47:24.439Z,29.7
2023-05-19T08:52:34.704Z,27.8
2023-05-19T08:57:34.748Z,27.2
2023-05-19T09:03:24.613Z,27
2023-05-19T09:08:34.725Z,28.2
2023-05-19T09:13:34.726Z,27.7
2023-05-19T09:18:34.760Z,27.5
2023-05-19T09:24:24.627Z,27.5
2023-05-19T09:29:24.528Z,27.3
2023-05-19T09:34:34.736Z,28.5
2023-05-19T09:40:24.796Z,28.1
2023-05-19T09:45:34.959Z,32.9
2023-05-19T09:50:34.732Z,33.4
2023-05-19T09:56:24.470Z,31.7
2023-05-19T10:01:24.533Z,33.9
2023-05-19T10:11:34.740Z,34.3
2023-05-19T10:17:24.516Z,34.1
2023-05-19T10:22:24.448Z,31.6
2023-05-19T10:27:24.460Z,32
2023-05-19T10:32:34.802Z,32.5
2023-05-19T10:38:24.449Z,33.4
2023-05-19T10:43:34.747Z,30.9
2023-05-19T10:49:24.690Z,30.7
2023-05-19T10:54:24.675Z,31.3
2023-05-19T10:59:24.733Z,31.1
2023-05-19T11:04:34.829Z,33.8
2023-05-19T11:10:24.467Z,31.5
2023-05-19T11:15:34.986Z,32.4
2023-05-19T11:20:34.867Z,31.2
2023-05-19T11:26:24.495Z,34.6
2023-05-19T11:31:24.523Z,32.7
2023-05-19T11:41:34.773Z,31.7
2023-05-19T11:46:34.792Z,32.5
2023-05-19T11:51:34.771Z,32.7
2023-05-19T11:57:24.494Z,32.8
2023-05-19T12:02:34.795Z,32.2
2023-05-19T12:07:34.789Z,32
2023-05-19T12:13:24.470Z,30.6
2023-05-19T12:23:24.501Z,32.8
2023-05-19T12:28:24.506Z,32
2023-05-19T12:33:35.678Z,33.8
2023-05-19T12:38:34.771Z,33.8
2023-05-19T12:44:24.506Z,35.6
2023-05-19T12:49:34.784Z,36.1
2023-05-19T12:54:34.812Z,34.3
2023-05-19T13:00:24.526Z,38.9
2023-05-19T13:05:24.520Z,35.4
2023-05-19T13:10:24.532Z,33.2
2023-05-19T13:15:24.528Z,34.6
2023-05-19T13:20:26.949Z,34.9
2023-05-19T13:25:34.792Z,36.2
2023-05-19T13:31:24.554Z,35.1
2023-05-19T13:36:24.527Z,35
2023-05-19T13:41:24.541Z,36.4
2023-05-19T13:46:44.755Z,35.6
2023-05-19T13:52:24.549Z,37.7
2023-05-19T13:57:24.599Z,34.7
2023-05-19T14:02:34.940Z,36.5
2023-05-19T14:07:35.071Z,33
2023-05-19T14:18:34.831Z,33.6
2023-05-19T14:24:24.545Z,32.9
2023-05-19T14:29:24.766Z,33.8
2023-05-19T14:34:24.793Z,33.1
2023-05-19T14:39:34.805Z,34.6
2023-05-19T14:44:34.822Z,36.2
2023-05-19T14:50:24.535Z,36.4
2023-05-19T14:55:34.850Z,33.3
2023-05-19T15:01:24.546Z,34.4
2023-05-19T15:06:34.812Z,33.4
2023-05-19T15:12:34.852Z,33.3
2023-05-19T15:18:24.517Z,34.5
2023-05-19T15:23:34.825Z,35
2023-05-19T15:28:34.854Z,38.1
2023-05-19T15:34:24.559Z,36.4
2023-05-19T15:39:34.826Z,36.6
2023-05-19T15:44:34.852Z,35.1
2023-05-19T15:50:24.564Z,36.6
2023-05-19T15:55:24.556Z,36.2
2023-05-19T16:00:35.041Z,36.8
2023-05-19T16:05:34.870Z,36.2
2023-05-19T16:22:24.962Z,36.2
2023-05-19T16:27:24.600Z,37.2
2023-05-19T16:32:34.854Z,38.3
2023-05-19T16:37:34.840Z,38.3
2023-05-19T16:42:34.877Z,37.5
2023-05-19T16:47:34.902Z,38
2023-05-19T16:53:24.547Z,39.2
2023-05-19T16:58:24.555Z,39.4
2023-05-19T17:03:24.787Z,39.8
2023-05-19T17:08:34.894Z,40.1
2023-05-19T17:14:24.626Z,40
2023-05-19T17:19:34.971Z,39.2
2023-05-19T17:25:24.581Z,39.7
2023-05-19T17:30:24.584Z,40.2
2023-05-19T17:35:26.333Z,40.8
2023-05-19T17:40:35.132Z,41.7
2023-05-19T17:46:24.646Z,40.6
2023-05-19T17:51:34.901Z,41.5
2023-05-19T17:56:34.872Z,42.3
2023-05-19T18:01:34.937Z,42.4
2023-05-19T18:07:24.567Z,42.7
2023-05-19T18:12:24.604Z,42.2
2023-05-19T18:17:24.643Z,42.1
2023-05-19T18:22:24.621Z,43.2
2023-05-19T18:27:34.854Z,43
2023-05-19T18:32:34.911Z,43.8
2023-05-19T18:37:34.862Z,43.6
2023-05-19T18:42:34.902Z,43.6
2023-05-19T18:53:34.872Z,44.2
2023-05-19T18:58:34.884Z,44.6
2023-05-19T19:03:34.898Z,45.9
2023-05-19T19:08:34.890Z,45.5
2023-05-19T19:14:24.585Z,47.5
2023-05-19T19:19:24.658Z,47.3
2023-05-19T19:29:34.888Z,48.6
2023-05-19T19:35:24.627Z,48.9
2023-05-19T19:40:35.178Z,50.4
2023-05-19T19:46:24.671Z,51.1
2023-05-19T19:51:24.670Z,51.6
2023-05-19T19:56:34.904Z,52.1
2023-05-19T20:01:34.913Z,51.7
2023-05-19T20:12:24.636Z,53.9
2023-05-19T20:17:24.670Z,55.1
2023-05-19T20:22:34.990Z,56
2023-05-19T20:28:24.634Z,57.8
2023-05-19T20:33:24.618Z,57.3
2023-05-19T20:38:34.912Z,57.1
2023-05-19T20:44:24.642Z,57.4
2023-05-19T20:49:34.936Z,57.4
2023-05-19T20:55:24.627Z,61.1
2023-05-19T21:00:24.626Z,58.8
2023-05-19T21:05:35.194Z,61.1
2023-05-19T21:11:24.631Z,60.3
2023-05-19T21:16:24.666Z,61.8
2023-05-19T21:21:24.659Z,62.6
2023-05-19T21:26:34.922Z,63.5
2023-05-19T21:32:24.833Z,64
2023-05-19T21:37:24.676Z,64.1
2023-05-19T21:42:34.949Z,64.4
2023-05-19T21:48:24.645Z,65.9
2023-05-19T21:53:34.934Z,66.2
2023-05-19T21:59:24.769Z,67.9
2023-05-19T22:04:24.677Z,67.7
2023-05-19T22:09:34.888Z,68
2023-05-19T22:14:34.927Z,68
2023-05-19T22:19:34.958Z,67.6
2023-05-19T22:25:24.630Z,68.7
2023-05-19T22:30:24.722Z,70
2023-05-19T22:35:34.936Z,70
2023-05-19T22:41:24.664Z,71.1
2023-05-19T22:46:24.809Z,71.2
2023-05-19T22:51:34.919Z,72.2
2023-05-19T22:57:24.653Z,72.7
2023-05-19T23:02:34.988Z,72.9
2023-05-19T23:08:24.696Z,71.8
2023-05-19T23:13:34.932Z,73.5
2023-05-19T23:19:24.698Z,74.6
2023-05-19T23:24:34.933Z,75.3
2023-05-19T23:30:24.672Z,76
2023-05-19T23:35:35.287Z,76.2
2023-05-19T23:41:24.658Z,79.3
2023-05-19T23:46:24.762Z,79.2
2023-05-19T23:51:34.923Z,78.6
2023-05-19T23:56:34.939Z,79.3
